This is the latest recevied weather packets stored in our database for station/object KK7RJD. If no packets are shown the sender has not sent any weather packets the latest 10 day(s).
| Time | Temp. | Humidity | Pressure | Rain* | Wind** | Luminosity | Snow |
|---|---|---|---|---|---|---|---|
| 1777704967 | 6.11° C | 50% | 1018.7 hPa | 0 mm | - | 0 W/m² | - |
| 1777704664 | 6.67° C | 47% | 1018.7 hPa | 0 mm | - | 0 W/m² | - |
| 1777704363 | 6.67° C | 49% | 1018.6 hPa | 0 mm | - | 0 W/m² | - |
| 1777704059 | 7.22° C | 46% | 1018.9 hPa | 0 mm | - | 0 W/m² | - |
| 1777703757 | 7.22° C | 46% | 1018.7 hPa | 0 mm | - | 0 W/m² | - |
| 1777703455 | 6.67° C | 48% | 1018.9 hPa | 0 mm | - | 0 W/m² | - |
| 1777703152 | 6.67° C | 47% | 1018.7 hPa | 0 mm | - | 0 W/m² | - |
| 1777702850 | 5.56° C | 49% | 1018.7 hPa | 0 mm | - | 0 W/m² | - |
| 1777702547 | 5.56° C | 50% | 1018.7 hPa | 0 mm | - | 0 W/m² | - |
| 1777702244 | 6.11° C | 48% | 1018.5 hPa | 0 mm | - | 0 W/m² | - |
| 1777701939 | 6.67° C | 46% | 1018.7 hPa | 0 mm | - | 0 W/m² | - |
| 1777701637 | 6.67° C | 45% | 1018.6 hPa | 0 mm | - | 0 W/m² | - |
| 1777701334 | 6.11° C | 46% | 1018.6 hPa | 0 mm | - | 0 W/m² | - |
| 1777701033 | 6.67° C | 48% | 1018.7 hPa | 0 mm | - | 0 W/m² | - |
| 1777700731 | 6.67° C | 46% | 1018.6 hPa | 0 mm | - | 0 W/m² | - |
| 1777700428 | 6.67° C | 45% | 1018.7 hPa | 0 mm | - | 0 W/m² | - |
| 1777700124 | 6.11° C | 46% | 1018.7 hPa | 0 mm | - | 0 W/m² | - |
| 1777699521 | 6.67° C | 46% | 1018.9 hPa | 0 mm | - | 0 W/m² | - |
| 1777699219 | 7.22° C | 44% | 1018.7 hPa | 0 mm | - | 0 W/m² | - |
| 1777698916 | 7.78° C | 43% | 1018.7 hPa | 0 mm | - | 0 W/m² | - |
| 1777698614 | 8.33° C | 42% | 1018.9 hPa | 0 mm | - | 0 W/m² | - |
| 1777698310 | 8.33° C | 41% | 1018.7 hPa | 0 mm | - | 0 W/m² | - |
| 1777698007 | 8.33° C | 41% | 1018.7 hPa | 0 mm | - | 0 W/m² | - |
| 1777697703 | 8.89° C | 40% | 1018.6 hPa | 0 mm | - | 0 W/m² | - |
| 1777697401 | 8.89° C | 40% | 1018.7 hPa | 0 mm | - | 0 W/m² | - |
* Rain latest hour (hover to see other rain measurements)
** Current wind speed in m/s (hover to see current wind gust speed)